Aeroporto :
LOGIN :

Iscrizione | Disclaimer

   EN    FR    IT 

 










Sommario :    VFR   VFR Marginale   IFR   IFR Intensivo   IFR Molto Intensivo
Visibilità : 
Base nubi : 
>= 8 km
>= 3000ft
5 / 8 km
1000 / 3000 ft
1500m / 5 km
500 / 1000 ft
800 / 1500m
200 / 500 ft
< 800m
< 200 ft
Simboli :   Temporali  Nebbia  Neve Forte  Precipitazioni Forti  Vento > 20 kt
SIGMETs :   Varie  Temporali  Ghiacco  Turbolenza  Onda orograficha  Ceneri Vulcaniche






- Altitudine del aeroporto : 56 ft
- Codice IATA : BZR


LFMU - Beziers / Vias

ULTIMO METAR :
  • 271130Z AUTO 31015KT 270V330 CAVOK 20/08 Q1010 TEMPO 31020G35KT

METARs OBSOLETI :
  • 271100Z AUTO 31022KT CAVOK 20/08 Q1010 TEMPO FEW040TCU BECMG 30018G30KT
  • 271030Z AUTO 29019KT CAVOK 19/07 Q1010 TEMPO 31020G35KT
  • 271000Z AUTO 31019KT CAVOK 19/07 Q1010 BECMG 31015G25KT
  • 270930Z AUTO 31014KT CAVOK 19/08 Q1010 TEMPO FEW040TCU BECMG 30018G30KT
  • 270900Z AUTO 31017KT 280V340 CAVOK 19/08 Q1010 TEMPO FEW040TCU BECMG 30018G30KT

TAF TAF LFMU
Valido dal 27 a 09 ore il 28 a 09 ore UTC


270800Z 2709/2809 30018G30KT 9999 SCT040
TEMPO 2709/2718 FEW040TCU
ATIS : +33 4 67 90 88 88



MetMap, La meteo Aeronautica in un colpo d'occhio ! - Copyright ORBIFLY Dicembre 2007 - Disclaimer

ORBIFLY MET'MAP TEAM :

Programmazione e sviluppo : Alexandra Zaïnal
Concezione : Baudouin d'Aumeries
Supporto tecnico e logistico : Manuel Goepfert
Aiuto : Marc-Olivier Méhu
Aiuto per la traduzione : Arnaldo La Scala




FONTI E CREDITI :

   NOAA